createdAt,value
2018-12-01T00:01:50.981Z,13.00
2018-12-01T00:04:22.021Z,12.80
2018-12-01T00:07:09.481Z,11.63
2018-12-01T00:09:40.537Z,13.10
2018-12-01T00:12:12.420Z,8.17
2018-12-01T00:14:44.441Z,10.07
2018-12-01T00:17:15.820Z,11.63
2018-12-01T00:19:47.160Z,9.10
2018-12-01T00:22:17.947Z,18.97
2018-12-01T00:24:48.900Z,14.27
2018-12-01T00:27:19.940Z,11.17
2018-12-01T00:29:50.980Z,11.30
2018-12-01T00:32:22.341Z,11.90
2018-12-01T00:34:53.701Z,11.60
2018-12-01T00:37:24.740Z,16.77
2018-12-01T00:39:55.780Z,10.20
2018-12-01T00:42:26.781Z,13.20
2018-12-01T00:44:58.201Z,14.43
2018-12-01T00:47:30.521Z,17.57
2018-12-01T00:50:01.867Z,13.33
2018-12-01T00:52:33.241Z,11.07
2018-12-01T00:55:04.567Z,12.97
2018-12-01T00:57:35.481Z,15.23
2018-12-01T01:00:10.304Z,14.13
2018-12-01T01:02:42.180Z,14.00
2018-12-01T01:05:13.561Z,13.43
2018-12-01T01:07:45.541Z,10.57
2018-12-01T01:10:16.580Z,15.80
2018-12-01T01:12:47.500Z,15.63
2018-12-01T01:15:19.003Z,11.50
2018-12-01T01:17:50.034Z,11.90
2018-12-01T01:20:22.022Z,8.87
2018-12-01T01:22:54.040Z,14.63
2018-12-01T01:25:25.722Z,14.40
2018-12-01T01:27:56.540Z,14.17
2018-12-01T01:30:28.150Z,12.33
2018-12-01T01:33:10.020Z,13.27
2018-12-01T01:35:41.063Z,15.83
2018-12-01T01:38:13.381Z,11.90
2018-12-01T01:40:45.061Z,14.43
2018-12-01T01:43:16.801Z,11.70
2018-12-01T01:45:48.100Z,13.67
2018-12-01T01:48:19.160Z,14.90
2018-12-01T01:50:50.201Z,11.13
2018-12-01T01:53:21.241Z,12.87
2018-12-01T01:55:52.522Z,11.83
2018-12-01T01:58:23.948Z,16.50
2018-12-01T02:00:56.281Z,18.83
2018-12-01T02:03:27.123Z,12.57
2018-12-01T02:05:58.362Z,9.50
2018-12-01T02:08:29.401Z,11.13
2018-12-01T02:11:01.080Z,9.83
2018-12-01T02:13:32.763Z,12.00
2018-12-01T02:16:03.782Z,12.17
2018-12-01T02:18:34.701Z,12.27
2018-12-01T02:21:07.461Z,15.60
2018-12-01T02:23:38.842Z,14.63
2018-12-01T02:26:10.181Z,11.67
2018-12-01T02:28:41.225Z,15.70
2018-12-01T02:31:12.182Z,13.77
2018-12-01T02:33:43.804Z,11.27
2018-12-01T02:36:15.624Z,13.83
2018-12-01T02:38:46.663Z,19.23
2018-12-01T02:41:18.681Z,13.07
2018-12-01T02:43:59.401Z,11.33
2018-12-01T02:46:41.882Z,11.87
2018-12-01T02:49:13.242Z,12.13
2018-12-01T02:51:44.602Z,12.53
2018-12-01T02:54:15.562Z,14.50
2018-12-01T02:56:46.682Z,15.27
2018-12-01T03:02:15.920Z,14.13
2018-12-01T03:04:48.122Z,24.03
2018-12-01T03:07:19.081Z,12.17
2018-12-01T03:09:50.340Z,13.00
2018-12-01T03:12:21.340Z,12.73
2018-12-01T03:14:52.420Z,11.97
2018-12-01T03:17:24.100Z,10.87
2018-12-01T03:19:55.482Z,10.00
2018-12-01T03:22:27.541Z,13.30
2018-12-01T03:24:58.402Z,14.73
2018-12-01T03:27:34.381Z,14.30
2018-12-01T03:30:09.248Z,10.20
2018-12-01T03:32:40.900Z,16.73
2018-12-01T03:35:14.501Z,12.70
2018-12-01T03:37:47.460Z,14.23
2018-12-01T03:40:19.300Z,13.63
2018-12-01T03:42:52.200Z,10.40
2018-12-01T03:45:24.497Z,14.63
2018-12-01T03:47:56.119Z,13.10
2018-12-01T03:50:27.462Z,14.50
2018-12-01T03:52:58.821Z,12.40
2018-12-01T03:55:34.362Z,12.00
2018-12-01T03:58:06.379Z,10.67
2018-12-01T04:00:37.699Z,14.20
2018-12-01T04:03:08.906Z,17.40
2018-12-01T04:05:40.101Z,14.30
2018-12-01T04:08:10.924Z,10.70
2018-12-01T04:10:41.901Z,11.70
2018-12-01T04:13:12.901Z,14.30
2018-12-01T04:15:43.822Z,13.33
2018-12-01T04:18:15.302Z,16.03
2018-12-01T04:20:46.235Z,16.17
2018-12-01T04:23:17.380Z,14.93
2018-12-01T04:25:48.289Z,15.67
2018-12-01T04:28:19.800Z,19.47
2018-12-01T04:30:50.839Z,15.00
2018-12-01T04:33:22.384Z,14.10
2018-12-01T04:35:53.539Z,14.47
2018-12-01T04:38:24.759Z,16.03
2018-12-01T04:40:55.941Z,18.63
2018-12-01T04:43:26.779Z,12.70
2018-12-01T04:45:58.419Z,14.87
2018-12-01T04:48:29.699Z,17.57
2018-12-01T04:51:00.781Z,12.80
2018-12-01T04:53:31.859Z,11.77
2018-12-01T04:56:03.160Z,13.87
2018-12-01T04:58:34.677Z,13.60
2018-12-01T05:01:06.001Z,11.07
2018-12-01T05:03:37.558Z,10.23
2018-12-01T05:06:08.578Z,11.33
2018-12-01T05:08:39.622Z,15.40
2018-12-01T05:11:10.662Z,19.57
2018-12-01T05:13:41.678Z,16.80
2018-12-01T05:16:12.867Z,13.40
2018-12-01T05:18:44.421Z,13.30
2018-12-01T05:21:15.501Z,11.90
2018-12-01T05:23:46.797Z,15.07
2018-12-01T05:26:18.501Z,15.33
2018-12-01T05:28:50.103Z,17.47
2018-12-01T05:31:21.600Z,19.00
2018-12-01T05:33:53.260Z,13.53
2018-12-01T05:36:24.280Z,30.80
2018-12-01T05:38:55.320Z,13.80
2018-12-01T05:41:27.039Z,16.77
2018-12-01T05:43:58.020Z,10.57
2018-12-01T05:46:29.381Z,14.90
2018-12-01T05:49:00.862Z,13.20
2018-12-01T05:51:32.440Z,12.70
2018-12-01T05:54:03.700Z,17.00
2018-12-01T05:56:34.799Z,13.13
2018-12-01T05:59:06.160Z,17.87
2018-12-01T06:01:37.540Z,11.97
2018-12-01T06:04:08.920Z,17.27
2018-12-01T06:06:40.160Z,15.40
2018-12-01T06:09:11.182Z,13.73
2018-12-01T06:11:42.439Z,14.20
2018-12-01T06:14:13.239Z,12.93
2018-12-01T06:16:44.421Z,15.77
2018-12-01T06:19:15.460Z,15.70
2018-12-01T06:21:46.499Z,13.53
2018-12-01T06:24:17.980Z,16.43
2018-12-01T06:26:49.199Z,14.07
2018-12-01T06:29:20.259Z,19.10
2018-12-01T06:31:51.360Z,15.77
2018-12-01T06:34:22.340Z,15.77
2018-12-01T06:36:54.028Z,14.07
2018-12-01T06:39:25.062Z,16.57
2018-12-01T06:41:56.441Z,14.30
2018-12-01T06:44:28.079Z,15.63
2018-12-01T06:46:59.139Z,14.07
2018-12-01T06:49:30.180Z,22.70
2018-12-01T06:52:01.860Z,18.67
2018-12-01T06:54:33.220Z,19.80
2018-12-01T06:57:04.561Z,19.23
2018-12-01T06:59:35.940Z,19.80
2018-12-01T07:02:07.601Z,17.40
2018-12-01T07:04:38.860Z,14.17
2018-12-01T07:07:10.001Z,16.87
2018-12-01T07:09:41.319Z,16.83
2018-12-01T07:12:12.461Z,18.63
2018-12-01T07:14:43.707Z,15.90
2018-12-01T07:17:15.060Z,14.10
2018-12-01T07:19:46.099Z,15.67
2018-12-01T07:22:17.540Z,18.23
2018-12-01T07:24:48.447Z,18.60
2018-12-01T07:27:19.240Z,14.50
2018-12-01T07:29:50.659Z,21.03
2018-12-01T07:32:21.982Z,14.87
2018-12-01T07:34:52.961Z,14.93
2018-12-01T07:37:23.960Z,22.27
2018-12-01T07:39:55.080Z,17.87
2018-12-01T07:42:26.160Z,18.27
2018-12-01T07:44:57.220Z,15.80
2018-12-01T07:47:28.579Z,19.70
2018-12-01T07:49:59.922Z,16.57
2018-12-01T07:52:30.980Z,18.30
2018-12-01T07:55:02.024Z,14.57
2018-12-01T07:57:33.399Z,19.33
2018-12-01T08:00:04.581Z,16.27
2018-12-01T08:02:35.780Z,17.37
2018-12-01T08:05:08.102Z,19.97
2018-12-01T08:07:38.861Z,16.63
2018-12-01T08:10:12.441Z,19.37
2018-12-01T08:12:43.441Z,17.50
2018-12-01T08:15:15.043Z,17.83
2018-12-01T08:17:47.020Z,14.27
2018-12-01T08:20:18.400Z,16.93
2018-12-01T08:22:49.941Z,18.67
2018-12-01T08:25:21.840Z,17.10
2018-12-01T08:27:55.564Z,18.03
2018-12-01T08:30:29.381Z,22.03
2018-12-01T08:33:00.761Z,22.33
2018-12-01T08:35:32.725Z,21.17
2018-12-01T08:38:03.675Z,21.70
2018-12-01T08:40:35.480Z,21.57
2018-12-01T08:43:07.040Z,22.57
2018-12-01T08:45:39.160Z,19.10
2018-12-01T08:48:10.941Z,18.77
2018-12-01T08:50:41.884Z,22.80
2018-12-01T08:53:13.002Z,16.03
2018-12-01T08:55:44.216Z,24.20
2018-12-01T08:58:15.581Z,24.40
2018-12-01T09:00:47.620Z,30.23
2018-12-01T09:03:20.540Z,25.23
2018-12-01T09:05:52.521Z,23.47
2018-12-01T09:08:23.561Z,20.23
2018-12-01T09:10:54.984Z,20.03
2018-12-01T09:13:26.360Z,17.50
2018-12-01T09:15:57.380Z,26.13
2018-12-01T09:18:28.360Z,29.20
2018-12-01T09:21:00.103Z,22.37
2018-12-01T09:23:31.780Z,23.40
2018-12-01T09:26:03.460Z,25.53
2018-12-01T09:28:34.820Z,23.97
2018-12-01T09:31:06.241Z,26.00
2018-12-01T09:33:37.205Z,22.67
2018-12-01T09:36:08.060Z,23.27
2018-12-01T09:38:39.240Z,24.83
2018-12-01T09:41:10.602Z,22.20
2018-12-01T09:43:41.681Z,22.30
2018-12-01T09:46:13.501Z,24.03
2018-12-01T09:48:44.942Z,25.23
2018-12-01T09:51:16.420Z,27.63
2018-12-01T09:53:47.500Z,19.67
2018-12-01T09:56:18.463Z,22.73
2018-12-01T09:58:50.162Z,22.77
2018-12-01T10:01:22.024Z,20.10
2018-12-01T10:03:53.230Z,29.43
2018-12-01T10:06:24.080Z,23.63
2018-12-01T10:08:55.301Z,22.73
2018-12-01T10:11:26.560Z,19.87
2018-12-01T10:13:58.980Z,22.53
2018-12-01T10:16:29.960Z,18.93
2018-12-01T10:19:01.001Z,17.07
2018-12-01T10:21:37.733Z,22.57
2018-12-01T10:24:10.181Z,22.40
2018-12-01T10:26:41.544Z,21.73
2018-12-01T10:29:12.891Z,22.53
2018-12-01T10:31:44.183Z,19.67
2018-12-01T10:34:15.300Z,21.33
2018-12-01T10:36:46.459Z,20.57
2018-12-01T10:39:17.622Z,20.97
2018-12-01T10:41:48.740Z,21.20
2018-12-01T10:44:19.760Z,20.30
2018-12-01T10:46:51.460Z,20.50
2018-12-01T10:49:22.499Z,22.27
2018-12-01T10:51:53.860Z,19.67
2018-12-01T10:54:25.118Z,16.53
2018-12-01T10:56:56.261Z,24.93
2018-12-01T10:59:27.603Z,25.97
2018-12-01T11:02:06.041Z,23.73
2018-12-01T11:04:40.340Z,18.90
2018-12-01T11:07:11.621Z,21.47
2018-12-01T11:09:43.002Z,27.80
2018-12-01T11:12:14.340Z,25.23
2018-12-01T11:14:45.381Z,25.13
2018-12-01T11:17:16.241Z,20.43
2018-12-01T11:19:47.460Z,25.40
2018-12-01T11:22:18.820Z,18.17
2018-12-01T11:24:49.799Z,21.67
2018-12-01T11:27:20.899Z,22.53
2018-12-01T11:29:52.263Z,22.13
2018-12-01T11:32:23.639Z,25.47
2018-12-01T11:34:54.285Z,20.97
2018-12-01T11:37:25.682Z,26.27
2018-12-01T11:39:57.701Z,31.57
2018-12-01T11:42:28.881Z,28.57
2018-12-01T11:45:00.099Z,22.30
2018-12-01T11:47:31.520Z,18.77
2018-12-01T11:50:02.319Z,27.97
2018-12-01T11:52:33.860Z,23.00
2018-12-01T11:55:04.881Z,26.93
2018-12-01T11:57:36.280Z,21.90
2018-12-01T12:00:11.081Z,20.70
2018-12-01T12:02:42.184Z,26.90
2018-12-01T12:05:14.196Z,20.60
2018-12-01T12:07:55.780Z,21.77
2018-12-01T12:10:27.059Z,25.70
2018-12-01T12:12:58.180Z,22.93
2018-12-01T12:15:28.919Z,24.93
2018-12-01T12:18:03.323Z,21.13
2018-12-01T12:20:34.304Z,25.53
2018-12-01T12:23:05.000Z,27.63
2018-12-01T12:25:36.559Z,19.70
2018-12-01T12:28:07.928Z,21.17
2018-12-01T12:30:38.967Z,22.47
2018-12-01T12:33:10.002Z,19.90
2018-12-01T12:35:41.040Z,29.07
2018-12-01T12:38:12.101Z,25.17
2018-12-01T12:40:42.820Z,21.70
2018-12-01T12:43:14.160Z,17.63
2018-12-01T12:45:45.204Z,19.63
2018-12-01T12:48:16.260Z,28.77
2018-12-01T12:50:53.071Z,22.40
2018-12-01T12:53:19.841Z,20.37
2018-12-01T12:55:51.301Z,20.53
2018-12-01T12:58:22.042Z,22.20
2018-12-01T13:00:53.340Z,23.07
2018-12-01T13:03:25.680Z,18.87
2018-12-01T13:05:56.743Z,20.73
2018-12-01T13:08:27.462Z,27.20
2018-12-01T13:10:59.142Z,21.97
2018-12-01T13:13:30.000Z,22.27
2018-12-01T13:16:01.367Z,27.23
2018-12-01T13:18:32.439Z,24.50
2018-12-01T13:21:02.960Z,21.87
2018-12-01T13:23:34.321Z,22.70
2018-12-01T13:26:05.561Z,22.43
2018-12-01T13:28:37.000Z,23.83
2018-12-01T13:31:08.040Z,23.10
2018-12-01T13:33:39.359Z,26.17
2018-12-01T13:36:09.941Z,22.00
2018-12-01T13:38:41.241Z,23.23
2018-12-01T13:41:13.120Z,24.87
2018-12-01T13:43:44.259Z,27.87
2018-12-01T13:46:15.280Z,22.83
2018-12-01T13:48:46.219Z,24.63
2018-12-01T13:51:17.320Z,17.80
2018-12-01T13:53:48.120Z,26.13
2018-12-01T13:56:20.943Z,22.40
2018-12-01T13:58:49.660Z,17.53
2018-12-01T14:01:20.881Z,20.37
2018-12-01T14:03:52.080Z,19.13
2018-12-01T14:06:23.280Z,24.33
2018-12-01T14:08:54.660Z,23.07
2018-12-01T14:11:25.280Z,25.60
2018-12-01T14:13:56.719Z,23.93
2018-12-01T14:16:27.182Z,22.03
2018-12-01T14:18:58.080Z,28.37
2018-12-01T14:21:29.101Z,25.63
2018-12-01T14:24:00.261Z,23.07
2018-12-01T14:26:31.282Z,19.33
2018-12-01T14:29:01.960Z,24.27
2018-12-01T14:31:33.060Z,30.23
2018-12-01T14:34:04.100Z,23.50
2018-12-01T14:36:34.800Z,29.40
2018-12-01T14:39:08.360Z,24.63
2018-12-01T14:41:39.540Z,20.17
2018-12-01T14:44:10.524Z,23.40
2018-12-01T14:46:41.881Z,23.43
2018-12-01T14:49:12.908Z,21.20
2018-12-01T14:51:43.403Z,22.13
2018-12-01T14:54:14.359Z,22.33
2018-12-01T14:56:45.380Z,23.00
2018-12-01T14:59:16.424Z,22.83
2018-12-01T15:01:47.259Z,25.40
2018-12-01T15:04:17.480Z,29.03
2018-12-01T15:06:47.922Z,27.10
2018-12-01T15:09:18.660Z,27.57
2018-12-01T15:11:49.800Z,24.57
2018-12-01T15:14:21.680Z,21.83
2018-12-01T15:16:52.419Z,25.67
2018-12-01T15:19:23.201Z,23.77
2018-12-01T15:21:54.519Z,22.43
2018-12-01T15:24:25.019Z,26.10
2018-12-01T15:26:55.938Z,23.80
2018-12-01T15:29:27.318Z,24.33
2018-12-01T15:31:58.183Z,24.60
2018-12-01T15:34:29.381Z,29.20
2018-12-01T15:37:00.401Z,28.70
2018-12-01T15:39:31.438Z,25.73
2018-12-01T15:42:33.139Z,23.30
2018-12-01T15:45:04.519Z,23.67
2018-12-01T15:48:06.862Z,27.57
2018-12-01T15:50:37.786Z,31.77
2018-12-01T15:53:12.238Z,28.50
2018-12-01T15:55:43.424Z,26.63
2018-12-01T15:58:14.280Z,21.60
2018-12-01T16:00:45.658Z,33.83
2018-12-01T16:03:17.498Z,55.07
2018-12-01T16:05:49.059Z,31.90
2018-12-01T16:08:20.540Z,22.43
2018-12-01T16:10:52.425Z,27.90
2018-12-01T16:13:24.762Z,31.60
2018-12-01T16:16:01.159Z,27.60
2018-12-01T16:18:32.599Z,29.37
2018-12-01T16:21:03.959Z,23.97
2018-12-01T16:23:34.979Z,25.77
2018-12-01T16:26:06.722Z,28.03
2018-12-01T16:28:37.638Z,26.33
2018-12-01T16:31:08.419Z,28.60
2018-12-01T16:33:39.039Z,32.43
2018-12-01T16:36:10.200Z,28.70
2018-12-01T16:38:41.580Z,31.17
2018-12-01T16:41:28.668Z,32.37
2018-12-01T16:43:59.622Z,29.03
2018-12-01T16:46:31.152Z,27.03
2018-12-01T16:49:02.019Z,33.07
2018-12-01T16:51:32.761Z,29.43
2018-12-01T16:54:03.779Z,28.77
2018-12-01T16:56:34.599Z,23.97
2018-12-01T16:59:06.181Z,23.83
2018-12-01T17:01:37.219Z,25.43
2018-12-01T17:04:08.259Z,30.17
2018-12-01T17:06:39.159Z,31.30
2018-12-01T17:09:10.232Z,23.20
2018-12-01T17:11:41.379Z,28.90
2018-12-01T17:14:12.599Z,29.47
2018-12-01T17:16:43.559Z,27.70
2018-12-01T17:19:14.819Z,26.90
2018-12-01T17:21:45.526Z,30.57
2018-12-01T17:24:16.139Z,25.33
2018-12-01T17:26:46.919Z,29.87
2018-12-01T17:29:17.999Z,31.73
2018-12-01T17:31:49.079Z,26.43
2018-12-01T17:34:19.726Z,27.93
2018-12-01T17:36:51.140Z,31.97
2018-12-01T17:39:21.861Z,31.90
2018-12-01T17:41:52.900Z,26.30
2018-12-01T17:44:24.099Z,24.73
2018-12-01T17:46:54.979Z,25.77
2018-12-01T17:49:26.019Z,27.90
2018-12-01T17:51:57.379Z,32.50
2018-12-01T17:54:28.079Z,22.10
2018-12-01T17:57:01.919Z,30.13
2018-12-01T17:59:33.346Z,30.83
2018-12-01T18:02:04.119Z,33.67
2018-12-01T18:04:34.860Z,34.50
2018-12-01T18:07:07.782Z,28.90
2018-12-01T18:09:38.799Z,38.07
2018-12-01T18:12:10.855Z,30.40
2018-12-01T18:14:43.587Z,31.57
2018-12-01T18:17:23.225Z,40.70
2018-12-01T18:19:55.440Z,27.37
2018-12-01T18:22:26.299Z,25.13
2018-12-01T18:24:57.260Z,27.57
2018-12-01T18:27:28.300Z,28.97
2018-12-01T18:29:59.300Z,29.10
2018-12-01T18:32:31.279Z,29.67
2018-12-01T18:35:02.319Z,28.80
2018-12-01T18:37:33.066Z,24.23
2018-12-01T18:40:04.102Z,22.70
2018-12-01T18:42:35.760Z,24.20
2018-12-01T18:45:09.082Z,26.23
2018-12-01T18:47:39.979Z,30.80
2018-12-01T18:50:16.001Z,29.77
2018-12-01T18:52:53.420Z,36.97
2018-12-01T18:55:24.183Z,30.67
2018-12-01T18:57:54.780Z,25.00
2018-12-01T19:00:28.741Z,31.47
2018-12-01T19:02:59.223Z,36.90
2018-12-01T19:05:30.061Z,26.63
2018-12-01T19:08:01.542Z,25.53
2018-12-01T19:10:32.560Z,24.83
2018-12-01T19:13:03.523Z,33.10
2018-12-01T19:15:34.481Z,29.77
2018-12-01T19:18:05.739Z,30.97
2018-12-01T19:20:37.361Z,30.07
2018-12-01T19:23:10.040Z,31.60
2018-12-01T19:25:43.319Z,29.03
2018-12-01T19:28:14.340Z,27.13
2018-12-01T19:30:45.362Z,35.13
2018-12-01T19:33:18.981Z,31.63
2018-12-01T19:35:50.798Z,36.40
2018-12-01T19:38:27.399Z,33.50
2018-12-01T19:40:59.720Z,37.50
2018-12-01T19:43:30.370Z,23.90
2018-12-01T19:46:01.261Z,27.63
2018-12-01T19:48:32.139Z,29.17
2018-12-01T19:51:02.693Z,36.30
2018-12-01T19:53:33.879Z,29.03
2018-12-01T19:56:05.099Z,26.10
2018-12-01T19:58:37.142Z,26.13
2018-12-01T20:01:08.160Z,28.10
2018-12-01T20:03:39.021Z,24.13
2018-12-01T20:06:09.500Z,31.10
2018-12-01T20:08:40.462Z,35.50
2018-12-01T20:11:11.673Z,33.57
2018-12-01T20:13:44.420Z,34.30
2018-12-01T20:16:23.980Z,34.37
2018-12-01T20:18:55.618Z,30.03
2018-12-01T20:21:26.280Z,32.73
2018-12-01T20:23:57.060Z,23.90
2018-12-01T20:26:27.680Z,28.73
2018-12-01T20:28:58.519Z,23.53
2018-12-01T20:31:28.979Z,33.17
2018-12-01T20:34:02.119Z,28.03
2018-12-01T20:36:34.784Z,21.57
2018-12-01T20:39:28.499Z,20.40
2018-12-01T20:41:59.960Z,23.23
2018-12-01T20:44:31.026Z,25.77
2018-12-01T20:47:02.020Z,32.50
2018-12-01T20:49:33.002Z,46.33
2018-12-01T20:52:04.698Z,43.00
2018-12-01T20:54:38.399Z,36.70
2018-12-01T20:57:14.487Z,28.63
2018-12-01T20:59:45.139Z,29.40
2018-12-01T21:02:16.142Z,21.03
2018-12-01T21:04:46.999Z,23.00
2018-12-01T21:07:17.685Z,21.03
2018-12-01T21:09:48.640Z,33.93
2018-12-01T21:12:19.739Z,21.77
2018-12-01T21:14:50.837Z,25.87
2018-12-01T21:17:21.360Z,16.40
2018-12-01T21:19:51.833Z,28.03
2018-12-01T21:22:22.979Z,30.23
2018-12-01T21:24:53.639Z,28.57
2018-12-01T21:27:24.099Z,30.03
2018-12-01T21:29:54.660Z,21.17
2018-12-01T21:32:25.079Z,25.10
2018-12-01T21:34:55.788Z,30.60
2018-12-01T21:37:26.231Z,23.60
2018-12-01T21:40:14.887Z,17.43
2018-12-01T21:42:58.782Z,20.27
2018-12-01T21:45:42.008Z,20.67
2018-12-01T21:48:14.999Z,20.73
2018-12-01T21:50:46.978Z,19.87
2018-12-01T21:53:22.439Z,18.53
2018-12-01T21:55:53.179Z,17.83
2018-12-01T21:58:24.263Z,17.63
2018-12-01T22:00:58.479Z,17.80
2018-12-01T22:03:30.266Z,23.33
2018-12-01T22:06:03.459Z,22.20
2018-12-01T22:08:35.461Z,22.67
2018-12-01T22:11:06.840Z,21.10
2018-12-01T22:13:38.390Z,17.60
2018-12-01T22:16:10.179Z,21.93
2018-12-01T22:18:40.899Z,19.40
2018-12-01T22:21:11.850Z,21.73
2018-12-01T22:23:42.769Z,27.10
2018-12-01T22:26:13.419Z,24.23
2018-12-01T22:28:44.198Z,29.90
2018-12-01T22:31:15.299Z,24.93
2018-12-01T22:33:47.215Z,34.70
2018-12-01T22:36:18.278Z,20.27
2018-12-01T22:38:49.210Z,20.20
2018-12-01T22:41:20.890Z,24.30
2018-12-01T22:43:51.999Z,30.27
2018-12-01T22:46:22.736Z,20.57
2018-12-01T22:48:53.721Z,18.17
2018-12-01T22:51:24.559Z,24.13
2018-12-01T22:53:55.799Z,23.80
2018-12-01T22:56:28.845Z,23.27
2018-12-01T22:58:57.538Z,21.60
2018-12-01T23:01:28.579Z,33.77
2018-12-01T23:03:59.617Z,40.23
2018-12-01T23:06:30.860Z,40.93
2018-12-01T23:09:02.339Z,29.30
2018-12-01T23:11:33.698Z,34.80
2018-12-01T23:14:04.399Z,27.17
2018-12-01T23:16:35.443Z,38.37
2018-12-01T23:19:06.329Z,52.83
2018-12-01T23:21:37.218Z,35.00
2018-12-01T23:24:08.187Z,46.00
2018-12-01T23:26:39.378Z,29.20
2018-12-01T23:29:10.098Z,36.57
2018-12-01T23:31:41.039Z,31.67
2018-12-01T23:34:11.778Z,29.80
2018-12-01T23:36:42.807Z,24.80
2018-12-01T23:39:13.838Z,28.03
2018-12-01T23:41:44.791Z,22.73
2018-12-01T23:44:21.840Z,31.47
2018-12-01T23:46:53.041Z,27.40
2018-12-01T23:49:23.824Z,27.53
2018-12-01T23:51:54.679Z,27.03
2018-12-01T23:54:26.499Z,31.07
2018-12-01T23:56:57.398Z,28.30
2018-12-01T23:59:28.599Z,29.23
